Details From PAJN - Juneau Intl
To PANN - NENANA MUNI
Flight Number -
Tags generated
Created
Modified
Stats Distance 579 nm / 1,073 km
Max Altitude 34,000 ft / 10,363 m
Waypoints 7
Social Downloads 1
Likes 0
Share VATSIM

Download

Looking for another format? Having issues loading an existing format? Contact us
Advertisement - Login to hide

Notes

Basic altitude profile: - Ascent Rate: 2500ft/min - Ascent Speed: 250kts - Cruise Altitude: 35000ft - Cruise Speed: 420kts - Descent Rate: 1500ft/min - Descent Speed: 250kts

Route

PAJN SSR77 J502 FAI PANN

ID Type Via Altitude Latitude Longitude Leg Dist Tot Dist Heading (true) Name
O PAJN APT - 0 ft / 0 m 58.35496˚ -134.57628˚ - 0 nm - Juneau Intl
SSR77 FIX - 28,100 ft / 8,565 m 59.29251˚ -136.47287˚ 81 nm 81 nm 314° / 313° -
DB NDB J502 (AWY-HI) 34,000 ft / 10,363 m 61.34028˚ -138.98333˚ 143 nm 225 nm 330° / 328° BURWASH NDB
AYZOL FIX J502 (AWY-HI) 34,000 ft / 10,363 m 62.47115˚ -141.00000˚ 88 nm 314 nm 321° / 319° -
ORT VOR J502 (AWY-HI) 34,000 ft / 10,363 m 62.94717˚ -141.91275˚ 38 nm 352 nm 319° / 318° NORTHWAY VORTAC
FAI VOR J502 (AWY-HI) 18,000 ft / 5,486 m 64.80008˚ -148.01197˚ 195 nm 547 nm 307° / 302° FAIRBANKS VORTAC
O PANN APT - 0 ft / 0 m 64.54808˚ -149.07569˚ 31 nm 579 nm 242° / 241° NENANA MUNI

Altitude Profile

Advertisement - Login to hide

Weather


0- 5 10 15 20 25 30 35+ Temperature / ° C

Clouds and Precipitation
Forecast for 2018-05-28 00:00 UTC. Updated 4 hours ago

Ground ~20,000 ft ~40,000 ft Winds

PAJN

Details ICAO PAJN (JNU)
Name Juneau Intl
Region USA (Alaska)
Timezone America/Juneau (UTC-8.0)
Stats Elevation 21 ft / 6 m (AMSL)
Location 58.354964° -134.576278°
Runways 1
Magnetic Variation 19.017° E

METAR

PAJN 280253Z 12012G18KT 10SM -RA SCT049 BKN060 OVC080 10/05 A2980

Decode

TAF

PAJN 272330Z 2800/2824 12014KT P6SM -SHRA FEW025 BKN045 OVC070 FM280800 09007KT P6SM VCSH BKN035 OVC090 FM281400 11011KT P6SM -SHRA OVC035

Decode

Departure Runways

ID Width Length Bearing (true) Bearing (mag) Surface Threshold Offset Overrun Length
08 150 ft / 46 m 8,430 ft / 2,570 m 104.87° 85.85° Asphalt 0 ft / 0 m 450 ft / 137 m
26 150 ft / 46 m 8,430 ft / 2,570 m 284.90° 265.88° Asphalt 0 ft / 0 m 225 ft / 69 m

PANN

Details ICAO PANN
Name NENANA MUNI
Region USA (Alaska)
Timezone America/Anchorage (UTC-8.0)
Stats Elevation 362 ft / 110 m (AMSL)
Location 64.548078° -149.075687°
Runways 2
Magnetic Variation 16.859° E

METAR

PANN 280253Z AUTO 34009G16KT 10SM FEW090 18/M01 A2966 RMK AO2 SLP050 T01831006 56005 TSNO $

Decode

TAF

Not found

Destination Runways

ID Width Length Bearing (true) Bearing (mag) Surface Threshold Offset Overrun Length
04L 100 ft / 30 m 4,585 ft / 1,397 m 58.89° 42.03° Asphalt 0 ft / 0 m 0 ft / 0 m
04R 60 ft / 18 m 2,512 ft / 766 m 58.89° 42.03° Grass 0 ft / 0 m 0 ft / 0 m
22L 60 ft / 18 m 2,512 ft / 766 m 238.91° 222.05° Grass 0 ft / 0 m 0 ft / 0 m
22R 100 ft / 30 m 4,585 ft / 1,397 m 238.92° 222.06° Asphalt 0 ft / 0 m 0 ft / 0 m